sensor_id;sensor_type;location;lat;lon;timestamp;P1;durP1;ratioP1;P2;durP2;ratioP2
7531;SDS011;3807;49.030;8.714;2023-07-24T00:01:59;9.48;;;4.97;;
7531;SDS011;3807;49.030;8.714;2023-07-24T00:04:24;7.90;;;5.32;;
7531;SDS011;3807;49.030;8.714;2023-07-24T00:06:50;7.07;;;5.10;;
7531;SDS011;3807;49.030;8.714;2023-07-24T00:09:15;7.15;;;4.75;;
7531;SDS011;3807;49.030;8.714;2023-07-24T00:11:40;8.90;;;4.80;;
7531;SDS011;3807;49.030;8.714;2023-07-24T00:14:06;9.00;;;4.68;;
7531;SDS011;3807;49.030;8.714;2023-07-24T00:16:31;7.12;;;4.90;;
7531;SDS011;3807;49.030;8.714;2023-07-24T00:18:56;8.90;;;5.22;;
7531;SDS011;3807;49.030;8.714;2023-07-24T00:21:22;7.10;;;4.78;;
7531;SDS011;3807;49.030;8.714;2023-07-24T00:23:47;12.32;;;4.90;;
7531;SDS011;3807;49.030;8.714;2023-07-24T00:26:12;7.43;;;4.68;;
7531;SDS011;3807;49.030;8.714;2023-07-24T00:28:38;6.90;;;4.62;;
7531;SDS011;3807;49.030;8.714;2023-07-24T00:31:03;8.32;;;5.15;;
7531;SDS011;3807;49.030;8.714;2023-07-24T00:33:28;9.38;;;5.30;;
7531;SDS011;3807;49.030;8.714;2023-07-24T00:35:57;8.77;;;5.28;;
7531;SDS011;3807;49.030;8.714;2023-07-24T00:38:22;8.82;;;4.75;;
7531;SDS011;3807;49.030;8.714;2023-07-24T00:40:48;7.97;;;5.15;;
7531;SDS011;3807;49.030;8.714;2023-07-24T00:43:14;7.60;;;4.57;;
7531;SDS011;3807;49.030;8.714;2023-07-24T00:45:40;7.97;;;5.00;;
7531;SDS011;3807;49.030;8.714;2023-07-24T00:48:05;9.23;;;5.53;;
7531;SDS011;3807;49.030;8.714;2023-07-24T00:50:31;8.45;;;5.43;;
7531;SDS011;3807;49.030;8.714;2023-07-24T00:52:56;12.32;;;5.65;;
7531;SDS011;3807;49.030;8.714;2023-07-24T00:55:22;8.93;;;5.03;;
7531;SDS011;3807;49.030;8.714;2023-07-24T00:57:48;9.13;;;5.32;;
7531;SDS011;3807;49.030;8.714;2023-07-24T01:00:14;9.85;;;5.20;;
7531;SDS011;3807;49.030;8.714;2023-07-24T01:02:40;7.47;;;5.07;;
7531;SDS011;3807;49.030;8.714;2023-07-24T01:05:07;7.78;;;5.35;;
7531;SDS011;3807;49.030;8.714;2023-07-24T01:07:33;9.35;;;5.50;;
7531;SDS011;3807;49.030;8.714;2023-07-24T01:09:59;8.10;;;5.35;;
7531;SDS011;3807;49.030;8.714;2023-07-24T01:15:05;7.45;;;4.72;;
7531;SDS011;3807;49.030;8.714;2023-07-24T01:17:34;7.55;;;5.03;;
7531;SDS011;3807;49.030;8.714;2023-07-24T01:20:07;8.30;;;5.20;;
7531;SDS011;3807;49.030;8.714;2023-07-24T01:22:39;8.48;;;5.30;;
7531;SDS011;3807;49.030;8.714;2023-07-24T01:28:12;7.20;;;5.18;;
7531;SDS011;3807;49.030;8.714;2023-07-24T01:30:37;8.30;;;5.37;;
7531;SDS011;3807;49.030;8.714;2023-07-24T01:33:02;7.65;;;4.87;;
7531;SDS011;3807;49.030;8.714;2023-07-24T01:35:28;7.85;;;4.93;;
7531;SDS011;3807;49.030;8.714;2023-07-24T01:37:55;8.95;;;4.87;;
7531;SDS011;3807;49.030;8.714;2023-07-24T01:40:21;6.95;;;4.90;;
7531;SDS011;3807;49.030;8.714;2023-07-24T01:42:48;7.90;;;4.90;;
7531;SDS011;3807;49.030;8.714;2023-07-24T01:45:15;8.10;;;4.68;;
7531;SDS011;3807;49.030;8.714;2023-07-24T01:47:40;8.43;;;5.15;;
7531;SDS011;3807;49.030;8.714;2023-07-24T01:50:06;8.30;;;5.40;;
7531;SDS011;3807;49.030;8.714;2023-07-24T01:52:32;6.80;;;4.80;;
7531;SDS011;3807;49.030;8.714;2023-07-24T01:54:57;8.23;;;4.65;;
7531;SDS011;3807;49.030;8.714;2023-07-24T01:57:22;8.80;;;4.53;;
7531;SDS011;3807;49.030;8.714;2023-07-24T01:59:47;7.87;;;5.15;;
7531;SDS011;3807;49.030;8.714;2023-07-24T02:02:13;6.82;;;4.82;;
7531;SDS011;3807;49.030;8.714;2023-07-24T02:04:39;8.88;;;4.72;;
7531;SDS011;3807;49.030;8.714;2023-07-24T02:07:04;7.57;;;4.95;;
7531;SDS011;3807;49.030;8.714;2023-07-24T02:09:30;7.53;;;4.93;;
7531;SDS011;3807;49.030;8.714;2023-07-24T02:11:55;9.27;;;5.93;;
7531;SDS011;3807;49.030;8.714;2023-07-24T02:14:20;8.52;;;4.68;;
7531;SDS011;3807;49.030;8.714;2023-07-24T02:16:46;7.50;;;5.00;;
7531;SDS011;3807;49.030;8.714;2023-07-24T02:19:11;8.35;;;4.87;;
7531;SDS011;3807;49.030;8.714;2023-07-24T02:21:37;8.93;;;4.70;;
7531;SDS011;3807;49.030;8.714;2023-07-24T02:24:02;7.20;;;4.75;;
7531;SDS011;3807;49.030;8.714;2023-07-24T02:26:28;7.18;;;4.80;;
7531;SDS011;3807;49.030;8.714;2023-07-24T02:28:53;6.40;;;4.37;;
7531;SDS011;3807;49.030;8.714;2023-07-24T02:31:19;7.03;;;4.45;;
7531;SDS011;3807;49.030;8.714;2023-07-24T02:33:44;13.48;;;5.18;;
7531;SDS011;3807;49.030;8.714;2023-07-24T02:36:09;7.95;;;4.95;;
7531;SDS011;3807;49.030;8.714;2023-07-24T02:38:35;7.82;;;4.87;;
7531;SDS011;3807;49.030;8.714;2023-07-24T02:41:00;9.27;;;5.95;;
7531;SDS011;3807;49.030;8.714;2023-07-24T02:43:25;8.18;;;5.20;;
7531;SDS011;3807;49.030;8.714;2023-07-24T02:45:51;8.13;;;5.50;;
7531;SDS011;3807;49.030;8.714;2023-07-24T02:48:16;8.43;;;4.97;;
7531;SDS011;3807;49.030;8.714;2023-07-24T02:50:41;11.02;;;5.47;;
7531;SDS011;3807;49.030;8.714;2023-07-24T02:53:07;8.18;;;4.57;;
7531;SDS011;3807;49.030;8.714;2023-07-24T02:55:32;7.37;;;4.90;;
7531;SDS011;3807;49.030;8.714;2023-07-24T02:57:58;8.98;;;5.20;;
7531;SDS011;3807;49.030;8.714;2023-07-24T03:00:23;11.50;;;5.12;;
7531;SDS011;3807;49.030;8.714;2023-07-24T03:02:49;8.15;;;5.57;;
7531;SDS011;3807;49.030;8.714;2023-07-24T03:05:14;9.30;;;5.43;;
7531;SDS011;3807;49.030;8.714;2023-07-24T03:07:39;9.77;;;5.82;;
7531;SDS011;3807;49.030;8.714;2023-07-24T03:10:05;9.98;;;5.90;;
7531;SDS011;3807;49.030;8.714;2023-07-24T03:12:30;8.95;;;5.80;;
7531;SDS011;3807;49.030;8.714;2023-07-24T03:14:56;9.43;;;5.78;;
7531;SDS011;3807;49.030;8.714;2023-07-24T03:17:22;8.95;;;5.20;;
7531;SDS011;3807;49.030;8.714;2023-07-24T03:19:48;8.20;;;5.40;;
7531;SDS011;3807;49.030;8.714;2023-07-24T03:22:13;7.87;;;5.00;;
7531;SDS011;3807;49.030;8.714;2023-07-24T03:24:39;7.30;;;5.10;;
7531;SDS011;3807;49.030;8.714;2023-07-24T03:27:04;7.20;;;5.05;;
7531;SDS011;3807;49.030;8.714;2023-07-24T03:29:30;9.73;;;5.57;;
7531;SDS011;3807;49.030;8.714;2023-07-24T03:31:55;10.40;;;5.35;;
7531;SDS011;3807;49.030;8.714;2023-07-24T03:34:20;8.30;;;5.53;;
7531;SDS011;3807;49.030;8.714;2023-07-24T03:36:46;10.68;;;5.30;;
7531;SDS011;3807;49.030;8.714;2023-07-24T03:39:11;7.47;;;5.12;;
7531;SDS011;3807;49.030;8.714;2023-07-24T03:41:37;8.43;;;5.28;;
7531;SDS011;3807;49.030;8.714;2023-07-24T03:44:03;11.23;;;5.80;;
7531;SDS011;3807;49.030;8.714;2023-07-24T03:46:28;10.15;;;6.00;;
7531;SDS011;3807;49.030;8.714;2023-07-24T03:48:54;9.23;;;5.57;;
7531;SDS011;3807;49.030;8.714;2023-07-24T03:51:19;11.88;;;5.55;;
7531;SDS011;3807;49.030;8.714;2023-07-24T03:53:45;8.38;;;5.35;;
7531;SDS011;3807;49.030;8.714;2023-07-24T03:56:10;9.57;;;6.22;;
7531;SDS011;3807;49.030;8.714;2023-07-24T03:58:36;10.75;;;6.00;;
7531;SDS011;3807;49.030;8.714;2023-07-24T04:01:02;9.07;;;5.37;;
7531;SDS011;3807;49.030;8.714;2023-07-24T04:03:27;12.02;;;5.37;;
7531;SDS011;3807;49.030;8.714;2023-07-24T04:05:53;9.93;;;5.68;;
7531;SDS011;3807;49.030;8.714;2023-07-24T04:08:18;10.45;;;5.65;;
7531;SDS011;3807;49.030;8.714;2023-07-24T04:10:44;9.57;;;5.70;;
7531;SDS011;3807;49.030;8.714;2023-07-24T04:13:09;9.13;;;5.47;;
7531;SDS011;3807;49.030;8.714;2023-07-24T04:15:34;14.68;;;5.70;;
7531;SDS011;3807;49.030;8.714;2023-07-24T04:18:00;10.30;;;5.78;;
7531;SDS011;3807;49.030;8.714;2023-07-24T04:20:25;9.13;;;5.72;;
7531;SDS011;3807;49.030;8.714;2023-07-24T04:22:50;10.27;;;5.47;;
7531;SDS011;3807;49.030;8.714;2023-07-24T04:25:16;10.40;;;5.53;;
7531;SDS011;3807;49.030;8.714;2023-07-24T04:27:41;8.52;;;5.30;;
7531;SDS011;3807;49.030;8.714;2023-07-24T04:30:07;8.75;;;5.87;;
7531;SDS011;3807;49.030;8.714;2023-07-24T04:32:32;11.02;;;5.00;;
7531;SDS011;3807;49.030;8.714;2023-07-24T04:34:58;9.02;;;5.00;;
7531;SDS011;3807;49.030;8.714;2023-07-24T04:37:23;11.10;;;5.80;;
7531;SDS011;3807;49.030;8.714;2023-07-24T04:39:49;9.03;;;5.60;;
7531;SDS011;3807;49.030;8.714;2023-07-24T04:42:14;11.93;;;6.23;;
7531;SDS011;3807;49.030;8.714;2023-07-24T04:44:39;9.27;;;5.70;;
7531;SDS011;3807;49.030;8.714;2023-07-24T04:47:05;9.70;;;5.87;;
7531;SDS011;3807;49.030;8.714;2023-07-24T04:49:30;7.90;;;5.37;;
7531;SDS011;3807;49.030;8.714;2023-07-24T04:51:57;9.93;;;5.80;;
7531;SDS011;3807;49.030;8.714;2023-07-24T04:54:22;8.47;;;5.17;;
7531;SDS011;3807;49.030;8.714;2023-07-24T04:56:48;8.13;;;5.17;;
7531;SDS011;3807;49.030;8.714;2023-07-24T04:59:13;8.33;;;5.73;;
7531;SDS011;3807;49.030;8.714;2023-07-24T05:01:38;9.00;;;5.47;;
7531;SDS011;3807;49.030;8.714;2023-07-24T05:04:04;7.70;;;5.57;;
7531;SDS011;3807;49.030;8.714;2023-07-24T05:06:29;9.40;;;5.53;;
7531;SDS011;3807;49.030;8.714;2023-07-24T05:08:54;9.60;;;5.23;;
7531;SDS011;3807;49.030;8.714;2023-07-24T05:11:20;10.37;;;5.57;;
7531;SDS011;3807;49.030;8.714;2023-07-24T05:13:45;10.60;;;5.17;;
7531;SDS011;3807;49.030;8.714;2023-07-24T05:16:10;8.30;;;5.50;;
7531;SDS011;3807;49.030;8.714;2023-07-24T05:18:36;10.10;;;5.90;;
7531;SDS011;3807;49.030;8.714;2023-07-24T05:21:01;10.13;;;6.13;;
7531;SDS011;3807;49.030;8.714;2023-07-24T05:23:26;10.23;;;5.22;;
7531;SDS011;3807;49.030;8.714;2023-07-24T05:25:58;10.23;;;5.70;;
7531;SDS011;3807;49.030;8.714;2023-07-24T05:28:28;8.60;;;5.77;;
7531;SDS011;3807;49.030;8.714;2023-07-24T05:30:55;11.53;;;5.87;;
7531;SDS011;3807;49.030;8.714;2023-07-24T05:33:20;7.87;;;5.07;;
7531;SDS011;3807;49.030;8.714;2023-07-24T05:35:46;10.17;;;6.30;;
7531;SDS011;3807;49.030;8.714;2023-07-24T05:38:11;9.90;;;6.30;;
7531;SDS011;3807;49.030;8.714;2023-07-24T05:40:36;10.80;;;6.10;;
7531;SDS011;3807;49.030;8.714;2023-07-24T05:43:02;7.87;;;5.43;;
7531;SDS011;3807;49.030;8.714;2023-07-24T05:45:28;13.70;;;6.17;;
7531;SDS011;3807;49.030;8.714;2023-07-24T05:47:54;8.20;;;4.67;;
7531;SDS011;3807;49.030;8.714;2023-07-24T05:50:19;11.50;;;6.00;;
7531;SDS011;3807;49.030;8.714;2023-07-24T05:52:45;9.00;;;5.70;;
7531;SDS011;3807;49.030;8.714;2023-07-24T05:55:10;8.50;;;5.80;;
7531;SDS011;3807;49.030;8.714;2023-07-24T05:57:36;8.60;;;5.53;;
7531;SDS011;3807;49.030;8.714;2023-07-24T06:00:02;10.67;;;5.97;;
7531;SDS011;3807;49.030;8.714;2023-07-24T06:02:28;9.13;;;6.00;;
7531;SDS011;3807;49.030;8.714;2023-07-24T06:04:53;9.67;;;5.83;;
7531;SDS011;3807;49.030;8.714;2023-07-24T06:07:19;9.97;;;6.50;;
7531;SDS011;3807;49.030;8.714;2023-07-24T06:09:44;9.73;;;5.93;;
7531;SDS011;3807;49.030;8.714;2023-07-24T06:12:09;11.67;;;6.37;;
7531;SDS011;3807;49.030;8.714;2023-07-24T06:14:34;13.17;;;6.23;;
7531;SDS011;3807;49.030;8.714;2023-07-24T06:17:00;7.77;;;4.97;;
7531;SDS011;3807;49.030;8.714;2023-07-24T06:19:25;10.70;;;6.40;;
7531;SDS011;3807;49.030;8.714;2023-07-24T06:21:50;9.63;;;5.80;;
7531;SDS011;3807;49.030;8.714;2023-07-24T06:24:16;8.57;;;5.33;;
7531;SDS011;3807;49.030;8.714;2023-07-24T06:26:41;11.17;;;6.10;;
7531;SDS011;3807;49.030;8.714;2023-07-24T06:29:06;10.90;;;6.20;;
7531;SDS011;3807;49.030;8.714;2023-07-24T06:31:32;10.97;;;6.13;;
7531;SDS011;3807;49.030;8.714;2023-07-24T06:33:57;11.00;;;5.60;;
7531;SDS011;3807;49.030;8.714;2023-07-24T06:36:22;10.77;;;6.07;;
7531;SDS011;3807;49.030;8.714;2023-07-24T06:38:48;11.17;;;7.03;;
7531;SDS011;3807;49.030;8.714;2023-07-24T06:41:16;8.57;;;5.93;;
7531;SDS011;3807;49.030;8.714;2023-07-24T06:43:42;8.50;;;6.27;;
7531;SDS011;3807;49.030;8.714;2023-07-24T06:46:08;10.17;;;5.97;;
7531;SDS011;3807;49.030;8.714;2023-07-24T06:48:33;9.03;;;5.80;;
7531;SDS011;3807;49.030;8.714;2023-07-24T06:50:58;10.27;;;6.07;;
7531;SDS011;3807;49.030;8.714;2023-07-24T06:53:24;10.40;;;6.67;;
7531;SDS011;3807;49.030;8.714;2023-07-24T06:55:49;10.77;;;5.73;;
7531;SDS011;3807;49.030;8.714;2023-07-24T06:58:14;39.50;;;10.63;;
7531;SDS011;3807;49.030;8.714;2023-07-24T07:00:40;10.37;;;6.33;;
7531;SDS011;3807;49.030;8.714;2023-07-24T07:03:05;12.67;;;6.03;;
7531;SDS011;3807;49.030;8.714;2023-07-24T07:05:33;13.13;;;6.63;;
7531;SDS011;3807;49.030;8.714;2023-07-24T07:07:59;10.40;;;6.37;;
7531;SDS011;3807;49.030;8.714;2023-07-24T07:10:24;12.17;;;6.70;;
7531;SDS011;3807;49.030;8.714;2023-07-24T07:12:50;16.23;;;6.80;;
7531;SDS011;3807;49.030;8.714;2023-07-24T07:15:15;10.00;;;6.37;;
7531;SDS011;3807;49.030;8.714;2023-07-24T07:17:40;12.90;;;7.23;;
7531;SDS011;3807;49.030;8.714;2023-07-24T07:20:06;11.93;;;6.63;;
7531;SDS011;3807;49.030;8.714;2023-07-24T07:22:32;10.93;;;6.37;;
7531;SDS011;3807;49.030;8.714;2023-07-24T07:24:57;11.50;;;7.50;;
7531;SDS011;3807;49.030;8.714;2023-07-24T07:27:22;10.33;;;6.87;;
7531;SDS011;3807;49.030;8.714;2023-07-24T07:29:48;20.67;;;7.33;;
7531;SDS011;3807;49.030;8.714;2023-07-24T07:32:13;16.67;;;6.33;;
7531;SDS011;3807;49.030;8.714;2023-07-24T07:34:38;22.43;;;7.00;;
7531;SDS011;3807;49.030;8.714;2023-07-24T07:37:04;16.77;;;7.47;;
7531;SDS011;3807;49.030;8.714;2023-07-24T07:39:31;13.40;;;6.13;;
7531;SDS011;3807;49.030;8.714;2023-07-24T07:41:56;10.30;;;6.63;;
7531;SDS011;3807;49.030;8.714;2023-07-24T07:44:21;10.30;;;6.80;;
7531;SDS011;3807;49.030;8.714;2023-07-24T07:46:47;10.03;;;6.40;;
7531;SDS011;3807;49.030;8.714;2023-07-24T07:49:12;9.77;;;6.53;;
7531;SDS011;3807;49.030;8.714;2023-07-24T07:51:38;12.10;;;6.37;;
7531;SDS011;3807;49.030;8.714;2023-07-24T07:54:03;12.93;;;6.53;;
7531;SDS011;3807;49.030;8.714;2023-07-24T07:56:29;13.43;;;7.00;;
7531;SDS011;3807;49.030;8.714;2023-07-24T07:58:54;12.10;;;6.97;;
7531;SDS011;3807;49.030;8.714;2023-07-24T08:01:19;10.90;;;6.40;;
7531;SDS011;3807;49.030;8.714;2023-07-24T08:03:45;10.83;;;6.03;;
7531;SDS011;3807;49.030;8.714;2023-07-24T08:06:10;12.17;;;6.63;;
7531;SDS011;3807;49.030;8.714;2023-07-24T08:08:36;11.87;;;6.60;;
7531;SDS011;3807;49.030;8.714;2023-07-24T08:11:07;16.37;;;6.80;;
7531;SDS011;3807;49.030;8.714;2023-07-24T08:13:33;11.20;;;6.60;;
7531;SDS011;3807;49.030;8.714;2023-07-24T08:15:59;10.27;;;6.20;;
7531;SDS011;3807;49.030;8.714;2023-07-24T08:18:26;8.83;;;6.43;;
7531;SDS011;3807;49.030;8.714;2023-07-24T08:20:51;14.50;;;7.40;;
7531;SDS011;3807;49.030;8.714;2023-07-24T08:23:16;13.53;;;6.77;;
7531;SDS011;3807;49.030;8.714;2023-07-24T08:25:54;13.17;;;7.47;;
7531;SDS011;3807;49.030;8.714;2023-07-24T08:28:20;11.37;;;7.13;;
7531;SDS011;3807;49.030;8.714;2023-07-24T08:30:46;12.13;;;6.97;;
7531;SDS011;3807;49.030;8.714;2023-07-24T08:33:14;11.10;;;7.00;;
7531;SDS011;3807;49.030;8.714;2023-07-24T08:35:39;11.47;;;6.93;;
7531;SDS011;3807;49.030;8.714;2023-07-24T08:38:04;10.40;;;6.80;;
7531;SDS011;3807;49.030;8.714;2023-07-24T08:40:30;14.33;;;6.10;;
7531;SDS011;3807;49.030;8.714;2023-07-24T08:42:55;14.33;;;7.57;;
7531;SDS011;3807;49.030;8.714;2023-07-24T08:45:21;11.53;;;6.80;;
7531;SDS011;3807;49.030;8.714;2023-07-24T08:47:48;11.17;;;6.83;;
7531;SDS011;3807;49.030;8.714;2023-07-24T08:50:15;9.73;;;6.67;;
7531;SDS011;3807;49.030;8.714;2023-07-24T08:52:42;10.17;;;6.47;;
7531;SDS011;3807;49.030;8.714;2023-07-24T08:55:08;11.63;;;6.33;;
7531;SDS011;3807;49.030;8.714;2023-07-24T08:57:34;11.60;;;7.10;;
7531;SDS011;3807;49.030;8.714;2023-07-24T09:00:00;12.50;;;7.40;;
7531;SDS011;3807;49.030;8.714;2023-07-24T09:02:29;12.03;;;6.97;;
7531;SDS011;3807;49.030;8.714;2023-07-24T09:04:56;11.67;;;7.47;;
7531;SDS011;3807;49.030;8.714;2023-07-24T09:07:21;11.43;;;6.53;;
7531;SDS011;3807;49.030;8.714;2023-07-24T09:09:47;11.40;;;6.83;;
7531;SDS011;3807;49.030;8.714;2023-07-24T09:12:15;14.50;;;7.20;;
7531;SDS011;3807;49.030;8.714;2023-07-24T09:14:40;10.37;;;6.63;;
7531;SDS011;3807;49.030;8.714;2023-07-24T09:17:06;10.93;;;7.03;;
7531;SDS011;3807;49.030;8.714;2023-07-24T09:19:33;11.80;;;7.60;;
7531;SDS011;3807;49.030;8.714;2023-07-24T09:22:11;11.83;;;7.87;;
7531;SDS011;3807;49.030;8.714;2023-07-24T09:24:48;13.27;;;7.35;;
7531;SDS011;3807;49.030;8.714;2023-07-24T09:27:14;9.27;;;6.80;;
7531;SDS011;3807;49.030;8.714;2023-07-24T09:29:40;12.77;;;7.53;;
7531;SDS011;3807;49.030;8.714;2023-07-24T09:32:05;13.25;;;7.80;;
7531;SDS011;3807;49.030;8.714;2023-07-24T09:34:31;10.50;;;7.20;;
7531;SDS011;3807;49.030;8.714;2023-07-24T09:36:56;9.43;;;6.30;;
7531;SDS011;3807;49.030;8.714;2023-07-24T09:39:23;10.87;;;6.37;;
7531;SDS011;3807;49.030;8.714;2023-07-24T09:41:52;10.75;;;6.12;;
7531;SDS011;3807;49.030;8.714;2023-07-24T09:44:17;8.57;;;6.10;;
7531;SDS011;3807;49.030;8.714;2023-07-24T09:46:43;11.47;;;6.77;;
7531;SDS011;3807;49.030;8.714;2023-07-24T09:49:09;11.13;;;7.33;;
7531;SDS011;3807;49.030;8.714;2023-07-24T09:51:34;11.50;;;6.40;;
7531;SDS011;3807;49.030;8.714;2023-07-24T09:54:09;10.83;;;6.77;;
7531;SDS011;3807;49.030;8.714;2023-07-24T09:56:50;13.37;;;6.57;;
7531;SDS011;3807;49.030;8.714;2023-07-24T09:59:17;12.10;;;6.50;;
7531;SDS011;3807;49.030;8.714;2023-07-24T10:01:43;12.33;;;7.40;;
7531;SDS011;3807;49.030;8.714;2023-07-24T10:04:09;9.50;;;6.18;;
7531;SDS011;3807;49.030;8.714;2023-07-24T10:06:35;7.70;;;5.60;;
7531;SDS011;3807;49.030;8.714;2023-07-24T10:09:01;8.70;;;6.72;;
7531;SDS011;3807;49.030;8.714;2023-07-24T10:11:27;9.45;;;6.53;;
7531;SDS011;3807;49.030;8.714;2023-07-24T10:13:53;9.63;;;6.45;;
7531;SDS011;3807;49.030;8.714;2023-07-24T10:16:19;9.40;;;6.28;;
7531;SDS011;3807;49.030;8.714;2023-07-24T10:18:45;10.15;;;6.62;;
7531;SDS011;3807;49.030;8.714;2023-07-24T10:21:11;10.63;;;5.65;;
7531;SDS011;3807;49.030;8.714;2023-07-24T10:23:41;9.48;;;6.43;;
7531;SDS011;3807;49.030;8.714;2023-07-24T10:26:08;8.68;;;6.47;;
7531;SDS011;3807;49.030;8.714;2023-07-24T10:28:38;8.65;;;6.55;;
7531;SDS011;3807;49.030;8.714;2023-07-24T10:31:18;10.95;;;6.37;;
7531;SDS011;3807;49.030;8.714;2023-07-24T10:33:45;12.52;;;7.12;;
7531;SDS011;3807;49.030;8.714;2023-07-24T10:36:11;11.65;;;7.25;;
7531;SDS011;3807;49.030;8.714;2023-07-24T10:38:42;9.13;;;6.85;;
7531;SDS011;3807;49.030;8.714;2023-07-24T10:41:09;8.00;;;6.03;;
7531;SDS011;3807;49.030;8.714;2023-07-24T10:43:46;10.57;;;6.90;;
7531;SDS011;3807;49.030;8.714;2023-07-24T10:46:13;10.27;;;6.18;;
7531;SDS011;3807;49.030;8.714;2023-07-24T10:48:43;10.73;;;6.43;;
7531;SDS011;3807;49.030;8.714;2023-07-24T10:51:10;11.35;;;6.70;;
7531;SDS011;3807;49.030;8.714;2023-07-24T10:53:36;10.32;;;6.60;;
7531;SDS011;3807;49.030;8.714;2023-07-24T10:56:06;9.18;;;6.55;;
7531;SDS011;3807;49.030;8.714;2023-07-24T10:58:32;10.45;;;7.03;;
7531;SDS011;3807;49.030;8.714;2023-07-24T11:00:58;9.02;;;6.55;;
7531;SDS011;3807;49.030;8.714;2023-07-24T11:03:24;9.02;;;6.45;;
7531;SDS011;3807;49.030;8.714;2023-07-24T11:05:50;9.30;;;6.50;;
7531;SDS011;3807;49.030;8.714;2023-07-24T11:08:17;8.50;;;6.00;;
7531;SDS011;3807;49.030;8.714;2023-07-24T11:10:44;7.95;;;5.78;;
7531;SDS011;3807;49.030;8.714;2023-07-24T11:13:21;8.52;;;5.30;;
7531;SDS011;3807;49.030;8.714;2023-07-24T11:15:50;10.10;;;5.85;;
7531;SDS011;3807;49.030;8.714;2023-07-24T11:18:17;8.10;;;5.53;;
7531;SDS011;3807;49.030;8.714;2023-07-24T11:20:50;8.15;;;5.60;;
7531;SDS011;3807;49.030;8.714;2023-07-24T11:23:16;12.30;;;7.15;;
7531;SDS011;3807;49.030;8.714;2023-07-24T11:25:42;11.48;;;7.03;;
7531;SDS011;3807;49.030;8.714;2023-07-24T11:28:09;7.57;;;6.05;;
7531;SDS011;3807;49.030;8.714;2023-07-24T11:30:35;9.32;;;6.28;;
7531;SDS011;3807;49.030;8.714;2023-07-24T11:33:05;8.48;;;5.45;;
7531;SDS011;3807;49.030;8.714;2023-07-24T11:35:32;10.25;;;6.05;;
7531;SDS011;3807;49.030;8.714;2023-07-24T11:37:58;8.50;;;6.15;;
7531;SDS011;3807;49.030;8.714;2023-07-24T11:40:34;8.65;;;6.18;;
7531;SDS011;3807;49.030;8.714;2023-07-24T11:43:02;9.10;;;5.60;;
7531;SDS011;3807;49.030;8.714;2023-07-24T11:45:28;8.10;;;5.85;;
7531;SDS011;3807;49.030;8.714;2023-07-24T11:48:08;11.20;;;5.50;;
7531;SDS011;3807;49.030;8.714;2023-07-24T11:50:41;10.93;;;5.85;;
7531;SDS011;3807;49.030;8.714;2023-07-24T11:53:07;8.80;;;5.20;;
7531;SDS011;3807;49.030;8.714;2023-07-24T11:55:48;8.38;;;5.72;;
7531;SDS011;3807;49.030;8.714;2023-07-24T11:58:14;9.30;;;5.25;;
7531;SDS011;3807;49.030;8.714;2023-07-24T12:00:41;9.10;;;5.68;;
7531;SDS011;3807;49.030;8.714;2023-07-24T12:03:06;6.82;;;5.10;;
7531;SDS011;3807;49.030;8.714;2023-07-24T12:05:42;7.68;;;5.32;;
7531;SDS011;3807;49.030;8.714;2023-07-24T12:08:09;10.55;;;6.93;;
7531;SDS011;3807;49.030;8.714;2023-07-24T12:10:37;8.52;;;5.28;;
7531;SDS011;3807;49.030;8.714;2023-07-24T12:13:04;10.07;;;5.72;;
7531;SDS011;3807;49.030;8.714;2023-07-24T12:15:30;8.13;;;5.30;;
7531;SDS011;3807;49.030;8.714;2023-07-24T12:17:56;9.75;;;5.75;;
7531;SDS011;3807;49.030;8.714;2023-07-24T12:20:22;9.27;;;5.87;;
7531;SDS011;3807;49.030;8.714;2023-07-24T12:22:47;9.10;;;5.95;;
7531;SDS011;3807;49.030;8.714;2023-07-24T12:25:12;7.60;;;4.97;;
7531;SDS011;3807;49.030;8.714;2023-07-24T12:27:38;7.28;;;5.10;;
7531;SDS011;3807;49.030;8.714;2023-07-24T12:30:06;8.60;;;5.55;;
7531;SDS011;3807;49.030;8.714;2023-07-24T12:32:32;8.40;;;5.93;;
7531;SDS011;3807;49.030;8.714;2023-07-24T12:34:57;9.15;;;5.28;;
7531;SDS011;3807;49.030;8.714;2023-07-24T12:37:23;8.80;;;5.95;;
7531;SDS011;3807;49.030;8.714;2023-07-24T12:39:48;7.93;;;5.53;;
7531;SDS011;3807;49.030;8.714;2023-07-24T12:42:14;6.90;;;5.05;;
7531;SDS011;3807;49.030;8.714;2023-07-24T12:44:40;7.43;;;5.28;;
7531;SDS011;3807;49.030;8.714;2023-07-24T12:47:06;6.75;;;5.12;;
7531;SDS011;3807;49.030;8.714;2023-07-24T12:49:32;7.20;;;5.30;;
7531;SDS011;3807;49.030;8.714;2023-07-24T12:51:57;7.62;;;5.22;;
7531;SDS011;3807;49.030;8.714;2023-07-24T12:54:23;7.95;;;5.12;;
7531;SDS011;3807;49.030;8.714;2023-07-24T12:56:51;7.28;;;5.05;;
7531;SDS011;3807;49.030;8.714;2023-07-24T12:59:17;7.87;;;5.20;;
7531;SDS011;3807;49.030;8.714;2023-07-24T13:01:43;7.53;;;4.97;;
7531;SDS011;3807;49.030;8.714;2023-07-24T13:04:09;6.65;;;4.85;;
7531;SDS011;3807;49.030;8.714;2023-07-24T13:06:34;7.00;;;4.80;;
7531;SDS011;3807;49.030;8.714;2023-07-24T13:09:00;7.37;;;4.82;;
7531;SDS011;3807;49.030;8.714;2023-07-24T13:11:25;7.55;;;4.75;;
7531;SDS011;3807;49.030;8.714;2023-07-24T13:13:53;7.05;;;4.68;;
7531;SDS011;3807;49.030;8.714;2023-07-24T13:16:18;7.78;;;4.82;;
7531;SDS011;3807;49.030;8.714;2023-07-24T13:18:44;5.85;;;4.53;;
7531;SDS011;3807;49.030;8.714;2023-07-24T13:21:09;7.78;;;4.85;;
7531;SDS011;3807;49.030;8.714;2023-07-24T13:23:35;7.47;;;4.68;;
7531;SDS011;3807;49.030;8.714;2023-07-24T13:26:00;9.60;;;5.32;;
7531;SDS011;3807;49.030;8.714;2023-07-24T13:28:26;7.28;;;4.50;;
7531;SDS011;3807;49.030;8.714;2023-07-24T13:30:51;9.10;;;4.50;;
7531;SDS011;3807;49.030;8.714;2023-07-24T13:33:17;6.70;;;4.57;;
7531;SDS011;3807;49.030;8.714;2023-07-24T13:35:42;6.57;;;4.37;;
7531;SDS011;3807;49.030;8.714;2023-07-24T13:38:07;6.25;;;4.68;;
7531;SDS011;3807;49.030;8.714;2023-07-24T13:40:33;8.23;;;4.57;;
7531;SDS011;3807;49.030;8.714;2023-07-24T13:42:59;7.12;;;4.85;;
7531;SDS011;3807;49.030;8.714;2023-07-24T13:45:25;8.75;;;4.70;;
7531;SDS011;3807;49.030;8.714;2023-07-24T13:47:50;6.75;;;4.20;;
7531;SDS011;3807;49.030;8.714;2023-07-24T13:50:15;6.90;;;4.82;;
7531;SDS011;3807;49.030;8.714;2023-07-24T13:52:41;6.20;;;4.32;;
7531;SDS011;3807;49.030;8.714;2023-07-24T13:55:06;5.07;;;4.20;;
7531;SDS011;3807;49.030;8.714;2023-07-24T13:57:32;6.80;;;3.97;;
7531;SDS011;3807;49.030;8.714;2023-07-24T13:59:57;6.53;;;4.25;;
7531;SDS011;3807;49.030;8.714;2023-07-24T14:02:23;6.57;;;4.45;;
7531;SDS011;3807;49.030;8.714;2023-07-24T14:04:48;7.75;;;4.22;;
7531;SDS011;3807;49.030;8.714;2023-07-24T14:07:13;6.32;;;4.87;;
7531;SDS011;3807;49.030;8.714;2023-07-24T14:09:39;6.18;;;4.65;;
7531;SDS011;3807;49.030;8.714;2023-07-24T14:12:04;6.22;;;4.68;;
7531;SDS011;3807;49.030;8.714;2023-07-24T14:14:30;6.45;;;4.37;;
7531;SDS011;3807;49.030;8.714;2023-07-24T14:16:56;5.00;;;3.80;;
7531;SDS011;3807;49.030;8.714;2023-07-24T14:19:22;6.25;;;4.50;;
7531;SDS011;3807;49.030;8.714;2023-07-24T14:21:48;7.40;;;4.30;;
7531;SDS011;3807;49.030;8.714;2023-07-24T14:24:14;6.00;;;4.18;;
7531;SDS011;3807;49.030;8.714;2023-07-24T14:26:40;5.37;;;4.10;;
7531;SDS011;3807;49.030;8.714;2023-07-24T14:29:05;7.78;;;4.30;;
7531;SDS011;3807;49.030;8.714;2023-07-24T14:31:31;5.43;;;3.78;;
7531;SDS011;3807;49.030;8.714;2023-07-24T14:33:56;7.28;;;5.03;;
7531;SDS011;3807;49.030;8.714;2023-07-24T14:36:22;6.12;;;4.15;;
7531;SDS011;3807;49.030;8.714;2023-07-24T14:38:47;7.45;;;4.10;;
7531;SDS011;3807;49.030;8.714;2023-07-24T14:41:12;5.50;;;4.03;;
7531;SDS011;3807;49.030;8.714;2023-07-24T14:43:41;5.55;;;4.00;;
7531;SDS011;3807;49.030;8.714;2023-07-24T14:46:07;5.30;;;3.30;;
7531;SDS011;3807;49.030;8.714;2023-07-24T14:48:32;5.80;;;3.92;;
7531;SDS011;3807;49.030;8.714;2023-07-24T14:50:58;6.70;;;3.55;;
7531;SDS011;3807;49.030;8.714;2023-07-24T14:53:23;5.75;;;3.67;;
7531;SDS011;3807;49.030;8.714;2023-07-24T14:55:49;5.15;;;3.67;;
7531;SDS011;3807;49.030;8.714;2023-07-24T14:58:14;6.43;;;3.83;;
7531;SDS011;3807;49.030;8.714;2023-07-24T15:00:39;4.20;;;3.40;;
7531;SDS011;3807;49.030;8.714;2023-07-24T15:03:05;4.80;;;3.72;;
7531;SDS011;3807;49.030;8.714;2023-07-24T15:05:30;5.90;;;3.90;;
7531;SDS011;3807;49.030;8.714;2023-07-24T15:07:56;6.50;;;4.03;;
7531;SDS011;3807;49.030;8.714;2023-07-24T15:10:21;4.30;;;3.55;;